sensor_id;sensor_type;location;lat;lon;timestamp;pressure;altitude;pressure_sealevel;temperature;humidity
23433;BME280;41331;45.412;10.992;2023-05-07T00:00:37;100868.56;;;19.28;77.24
23433;BME280;41331;45.412;10.992;2023-05-07T00:03:05;100873.25;;;19.24;78.22
23433;BME280;41331;45.412;10.992;2023-05-07T00:05:32;100872.38;;;19.17;79.81
23433;BME280;41331;45.412;10.992;2023-05-07T00:08:00;100871.56;;;19.16;80.05
23433;BME280;41331;45.412;10.992;2023-05-07T00:10:27;100880.63;;;19.17;80.49
23433;BME280;41331;45.412;10.992;2023-05-07T00:12:55;100873.81;;;19.03;82.09
23433;BME280;41331;45.412;10.992;2023-05-07T00:15:25;100875.44;;;19.08;82.85
23433;BME280;41331;45.412;10.992;2023-05-07T00:17:53;100862.78;;;19.07;83.13
23433;BME280;41331;45.412;10.992;2023-05-07T00:20:20;100866.38;;;19.11;82.90
23433;BME280;41331;45.412;10.992;2023-05-07T00:22:51;100863.22;;;19.09;83.52
23433;BME280;41331;45.412;10.992;2023-05-07T00:25:18;100857.28;;;19.07;83.72
23433;BME280;41331;45.412;10.992;2023-05-07T00:27:46;100863.56;;;19.07;84.18
23433;BME280;41331;45.412;10.992;2023-05-07T00:30:15;100872.16;;;18.99;84.37
23433;BME280;41331;45.412;10.992;2023-05-07T00:32:42;100863.00;;;18.91;84.94
23433;BME280;41331;45.412;10.992;2023-05-07T00:35:12;100873.94;;;18.84;85.82
23433;BME280;41331;45.412;10.992;2023-05-07T00:37:40;100867.25;;;18.85;85.82
23433;BME280;41331;45.412;10.992;2023-05-07T00:40:08;100875.13;;;18.83;86.34
23433;BME280;41331;45.412;10.992;2023-05-07T00:42:36;100870.41;;;18.87;86.21
23433;BME280;41331;45.412;10.992;2023-05-07T00:45:04;100869.28;;;18.88;86.19
23433;BME280;41331;45.412;10.992;2023-05-07T00:47:31;100865.47;;;19.00;86.21
23433;BME280;41331;45.412;10.992;2023-05-07T00:49:59;100863.03;;;18.95;85.98
23433;BME280;41331;45.412;10.992;2023-05-07T00:52:27;100874.06;;;18.95;85.99
23433;BME280;41331;45.412;10.992;2023-05-07T00:54:55;100871.66;;;18.89;86.11
23433;BME280;41331;45.412;10.992;2023-05-07T00:57:23;100870.66;;;19.05;86.03
23433;BME280;41331;45.412;10.992;2023-05-07T00:59:51;100855.28;;;19.04;86.06
23433;BME280;41331;45.412;10.992;2023-05-07T01:02:19;100852.94;;;19.06;85.86
23433;BME280;41331;45.412;10.992;2023-05-07T01:04:46;100862.72;;;19.00;86.04
23433;BME280;41331;45.412;10.992;2023-05-07T01:07:14;100859.63;;;19.05;85.75
23433;BME280;41331;45.412;10.992;2023-05-07T01:09:42;100863.09;;;18.98;86.66
23433;BME280;41331;45.412;10.992;2023-05-07T01:12:10;100856.88;;;19.05;85.67
23433;BME280;41331;45.412;10.992;2023-05-07T01:14:37;100866.66;;;18.99;86.01
23433;BME280;41331;45.412;10.992;2023-05-07T01:17:05;100859.91;;;18.96;85.81
23433;BME280;41331;45.412;10.992;2023-05-07T01:19:34;100852.84;;;18.99;85.61
23433;BME280;41331;45.412;10.992;2023-05-07T01:22:08;100854.06;;;19.01;85.46
23433;BME280;41331;45.412;10.992;2023-05-07T01:24:45;100852.09;;;19.02;85.46
23433;BME280;41331;45.412;10.992;2023-05-07T01:27:14;100860.47;;;19.12;84.44
23433;BME280;41331;45.412;10.992;2023-05-07T01:29:41;100856.53;;;19.10;84.61
23433;BME280;41331;45.412;10.992;2023-05-07T01:32:09;100855.63;;;19.02;85.56
23433;BME280;41331;45.412;10.992;2023-05-07T01:34:38;100844.53;;;18.95;85.88
23433;BME280;41331;45.412;10.992;2023-05-07T01:37:06;100843.59;;;18.84;86.91
23433;BME280;41331;45.412;10.992;2023-05-07T01:39:39;100842.34;;;18.78;87.82
23433;BME280;41331;45.412;10.992;2023-05-07T01:42:07;100847.38;;;18.72;88.09
23433;BME280;41331;45.412;10.992;2023-05-07T01:44:34;100847.44;;;18.76;88.37
23433;BME280;41331;45.412;10.992;2023-05-07T01:47:02;100853.25;;;18.71;88.30
23433;BME280;41331;45.412;10.992;2023-05-07T01:49:30;100857.09;;;18.66;88.84
23433;BME280;41331;45.412;10.992;2023-05-07T01:51:58;100853.94;;;18.64;88.88
23433;BME280;41331;45.412;10.992;2023-05-07T01:54:27;100849.94;;;18.58;89.08
23433;BME280;41331;45.412;10.992;2023-05-07T01:56:58;100859.00;;;18.62;89.00
23433;BME280;41331;45.412;10.992;2023-05-07T01:59:26;100853.00;;;18.53;90.81
23433;BME280;41331;45.412;10.992;2023-05-07T02:01:53;100855.59;;;18.42;90.24
23433;BME280;41331;45.412;10.992;2023-05-07T02:04:20;100853.84;;;18.30;90.72
23433;BME280;41331;45.412;10.992;2023-05-07T02:06:48;100860.63;;;18.36;91.14
23433;BME280;41331;45.412;10.992;2023-05-07T02:09:16;100869.09;;;18.24;91.55
23433;BME280;41331;45.412;10.992;2023-05-07T02:11:47;100864.69;;;18.20;92.46
23433;BME280;41331;45.412;10.992;2023-05-07T02:14:14;100861.94;;;18.20;93.20
23433;BME280;41331;45.412;10.992;2023-05-07T02:16:42;100855.63;;;18.19;91.82
23433;BME280;41331;45.412;10.992;2023-05-07T02:19:12;100857.47;;;18.11;92.55
23433;BME280;41331;45.412;10.992;2023-05-07T02:21:39;100859.56;;;18.18;92.16
23433;BME280;41331;45.412;10.992;2023-05-07T02:24:07;100860.66;;;18.14;92.36
23433;BME280;41331;45.412;10.992;2023-05-07T02:26:34;100860.22;;;18.11;92.95
23433;BME280;41331;45.412;10.992;2023-05-07T02:29:02;100861.34;;;18.07;92.99
23433;BME280;41331;45.412;10.992;2023-05-07T02:31:29;100859.34;;;18.04;93.58
23433;BME280;41331;45.412;10.992;2023-05-07T02:33:57;100859.81;;;18.09;93.50
23433;BME280;41331;45.412;10.992;2023-05-07T02:36:24;100859.19;;;17.97;94.82
23433;BME280;41331;45.412;10.992;2023-05-07T02:39:02;100855.47;;;17.85;94.76
23433;BME280;41331;45.412;10.992;2023-05-07T02:41:29;100859.34;;;17.81;94.78
23433;BME280;41331;45.412;10.992;2023-05-07T02:43:57;100857.06;;;17.86;95.17
23433;BME280;41331;45.412;10.992;2023-05-07T02:46:24;100862.31;;;17.95;94.49
23433;BME280;41331;45.412;10.992;2023-05-07T02:48:59;100858.69;;;17.88;94.67
23433;BME280;41331;45.412;10.992;2023-05-07T02:51:29;100863.38;;;17.87;94.88
23433;BME280;41331;45.412;10.992;2023-05-07T02:53:59;100854.63;;;17.81;95.58
23433;BME280;41331;45.412;10.992;2023-05-07T02:56:28;100849.47;;;17.80;95.98
23433;BME280;41331;45.412;10.992;2023-05-07T02:58:56;100859.28;;;17.77;96.90
23433;BME280;41331;45.412;10.992;2023-05-07T03:01:27;100852.63;;;17.78;96.59
23433;BME280;41331;45.412;10.992;2023-05-07T03:04:04;100855.66;;;17.73;96.49
23433;BME280;41331;45.412;10.992;2023-05-07T03:06:31;100859.13;;;17.70;96.49
23433;BME280;41331;45.412;10.992;2023-05-07T03:08:59;100864.13;;;17.65;96.94
23433;BME280;41331;45.412;10.992;2023-05-07T03:11:27;100861.75;;;17.63;96.90
23433;BME280;41331;45.412;10.992;2023-05-07T03:13:54;100860.75;;;17.52;97.43
23433;BME280;41331;45.412;10.992;2023-05-07T03:16:22;100856.28;;;17.44;98.72
23433;BME280;41331;45.412;10.992;2023-05-07T03:18:49;100862.66;;;17.48;99.30
23433;BME280;41331;45.412;10.992;2023-05-07T03:21:18;100856.69;;;17.46;99.26
23433;BME280;41331;45.412;10.992;2023-05-07T03:23:45;100865.81;;;17.50;98.50
23433;BME280;41331;45.412;10.992;2023-05-07T03:26:13;100861.97;;;17.54;98.68
23433;BME280;41331;45.412;10.992;2023-05-07T03:28:41;100859.22;;;17.54;97.94
23433;BME280;41331;45.412;10.992;2023-05-07T03:31:12;100856.47;;;17.54;98.67
23433;BME280;41331;45.412;10.992;2023-05-07T03:33:50;100850.75;;;17.63;97.78
23433;BME280;41331;45.412;10.992;2023-05-07T03:36:18;100863.38;;;17.45;98.71
23433;BME280;41331;45.412;10.992;2023-05-07T03:38:46;100862.78;;;17.35;100.00
23433;BME280;41331;45.412;10.992;2023-05-07T03:41:17;100866.81;;;17.19;100.00
23433;BME280;41331;45.412;10.992;2023-05-07T03:43:46;100862.38;;;17.14;100.00
23433;BME280;41331;45.412;10.992;2023-05-07T03:46:13;100862.69;;;17.09;100.00
23433;BME280;41331;45.412;10.992;2023-05-07T03:48:42;100871.00;;;17.13;100.00
23433;BME280;41331;45.412;10.992;2023-05-07T03:51:11;100860.13;;;17.20;100.00
23433;BME280;41331;45.412;10.992;2023-05-07T03:53:38;100867.22;;;17.21;100.00
23433;BME280;41331;45.412;10.992;2023-05-07T03:56:06;100868.88;;;17.25;100.00
23433;BME280;41331;45.412;10.992;2023-05-07T03:58:36;100865.72;;;17.23;100.00
23433;BME280;41331;45.412;10.992;2023-05-07T04:01:08;100864.84;;;17.19;100.00
23433;BME280;41331;45.412;10.992;2023-05-07T04:03:35;100858.91;;;17.17;100.00
23433;BME280;41331;45.412;10.992;2023-05-07T04:06:04;100865.25;;;17.21;100.00
23433;BME280;41331;45.412;10.992;2023-05-07T04:08:34;100858.63;;;17.22;100.00
23433;BME280;41331;45.412;10.992;2023-05-07T04:11:03;100860.34;;;17.11;100.00
23433;BME280;41331;45.412;10.992;2023-05-07T04:13:32;100863.19;;;17.15;100.00
23433;BME280;41331;45.412;10.992;2023-05-07T04:16:03;100867.59;;;17.19;100.00
23433;BME280;41331;45.412;10.992;2023-05-07T04:18:32;100869.84;;;17.14;100.00
23433;BME280;41331;45.412;10.992;2023-05-07T04:20:59;100871.00;;;17.13;100.00
23433;BME280;41331;45.412;10.992;2023-05-07T04:23:27;100867.88;;;17.33;100.00
23433;BME280;41331;45.412;10.992;2023-05-07T04:25:58;100871.72;;;17.29;100.00
23433;BME280;41331;45.412;10.992;2023-05-07T04:28:34;100870.25;;;17.35;100.00
23433;BME280;41331;45.412;10.992;2023-05-07T04:31:01;100873.50;;;17.41;99.86
23433;BME280;41331;45.412;10.992;2023-05-07T04:33:31;100868.56;;;17.50;99.20
23433;BME280;41331;45.412;10.992;2023-05-07T04:36:01;100869.00;;;17.52;99.64
23433;BME280;41331;45.412;10.992;2023-05-07T04:38:33;100868.91;;;17.68;99.54
23433;BME280;41331;45.412;10.992;2023-05-07T04:41:04;100872.97;;;17.74;97.38
23433;BME280;41331;45.412;10.992;2023-05-07T04:43:34;100880.50;;;17.77;97.26
23433;BME280;41331;45.412;10.992;2023-05-07T04:46:02;100886.66;;;17.70;96.24
23433;BME280;41331;45.412;10.992;2023-05-07T04:48:30;100890.66;;;17.73;96.49
23433;BME280;41331;45.412;10.992;2023-05-07T04:50:58;100885.75;;;17.85;96.38
23433;BME280;41331;45.412;10.992;2023-05-07T04:53:26;100893.66;;;17.87;96.22
23433;BME280;41331;45.412;10.992;2023-05-07T04:55:56;100900.59;;;17.77;97.13
23433;BME280;41331;45.412;10.992;2023-05-07T04:58:33;100902.66;;;17.84;96.67
23433;BME280;41331;45.412;10.992;2023-05-07T05:01:01;100903.03;;;17.82;96.77
23433;BME280;41331;45.412;10.992;2023-05-07T05:03:29;100903.75;;;17.79;97.83
23433;BME280;41331;45.412;10.992;2023-05-07T05:05:57;100903.03;;;18.05;94.12
23433;BME280;41331;45.412;10.992;2023-05-07T05:08:30;100907.03;;;18.08;94.13
23433;BME280;41331;45.412;10.992;2023-05-07T05:11:01;100903.50;;;18.11;93.93
23433;BME280;41331;45.412;10.992;2023-05-07T05:13:30;100914.03;;;18.28;94.26
23433;BME280;41331;45.412;10.992;2023-05-07T05:15:58;100914.22;;;18.16;95.30
23433;BME280;41331;45.412;10.992;2023-05-07T05:18:27;100920.03;;;18.11;97.21
23433;BME280;41331;45.412;10.992;2023-05-07T05:20:55;100924.56;;;18.00;96.55
23433;BME280;41331;45.412;10.992;2023-05-07T05:23:23;100935.22;;;18.01;96.15
23433;BME280;41331;45.412;10.992;2023-05-07T05:25:55;100932.84;;;18.00;96.05
23433;BME280;41331;45.412;10.992;2023-05-07T05:28:25;100939.69;;;18.09;95.49
23433;BME280;41331;45.412;10.992;2023-05-07T05:30:53;100936.16;;;18.09;93.23
23433;BME280;41331;45.412;10.992;2023-05-07T05:33:21;100941.13;;;18.23;92.15
23433;BME280;41331;45.412;10.992;2023-05-07T05:35:53;100940.25;;;18.19;91.22
23433;BME280;41331;45.412;10.992;2023-05-07T05:38:21;100940.91;;;18.35;90.03
23433;BME280;41331;45.412;10.992;2023-05-07T05:40:51;100933.88;;;18.37;89.98
23433;BME280;41331;45.412;10.992;2023-05-07T05:43:22;100929.31;;;18.49;88.21
23433;BME280;41331;45.412;10.992;2023-05-07T05:45:50;100930.13;;;18.49;89.10
23433;BME280;41331;45.412;10.992;2023-05-07T05:48:17;100923.97;;;18.86;85.49
23433;BME280;41331;45.412;10.992;2023-05-07T05:50:45;100933.38;;;18.81;85.13
23433;BME280;41331;45.412;10.992;2023-05-07T05:53:15;100927.22;;;18.92;86.54
23433;BME280;41331;45.412;10.992;2023-05-07T05:55:43;100926.66;;;19.09;87.15
23433;BME280;41331;45.412;10.992;2023-05-07T05:58:12;100923.16;;;19.46;83.47
23433;BME280;41331;45.412;10.992;2023-05-07T06:00:44;100922.50;;;19.22;82.37
23433;BME280;41331;45.412;10.992;2023-05-07T06:03:12;100928.94;;;19.33;83.75
23433;BME280;41331;45.412;10.992;2023-05-07T06:05:40;100927.97;;;19.52;81.70
23433;BME280;41331;45.412;10.992;2023-05-07T06:08:08;100935.50;;;19.55;83.53
23433;BME280;41331;45.412;10.992;2023-05-07T06:10:36;100929.34;;;19.65;83.88
23433;BME280;41331;45.412;10.992;2023-05-07T06:13:07;100939.41;;;19.84;83.26
23433;BME280;41331;45.412;10.992;2023-05-07T06:15:36;100937.59;;;19.99;81.68
23433;BME280;41331;45.412;10.992;2023-05-07T06:18:09;100934.25;;;20.27;82.41
23433;BME280;41331;45.412;10.992;2023-05-07T06:20:36;100932.59;;;20.60;78.57
23433;BME280;41331;45.412;10.992;2023-05-07T06:23:08;100928.13;;;20.48;79.84
23433;BME280;41331;45.412;10.992;2023-05-07T06:25:35;100932.56;;;20.56;80.55
23433;BME280;41331;45.412;10.992;2023-05-07T06:28:03;100931.81;;;20.66;79.24
23433;BME280;41331;45.412;10.992;2023-05-07T06:30:33;100928.06;;;20.96;77.12
23433;BME280;41331;45.412;10.992;2023-05-07T06:33:00;100938.91;;;21.30;77.14
23433;BME280;41331;45.412;10.992;2023-05-07T06:35:28;100931.09;;;21.57;74.03
23433;BME280;41331;45.412;10.992;2023-05-07T06:37:55;100940.28;;;22.04;71.40
23433;BME280;41331;45.412;10.992;2023-05-07T06:40:27;100930.06;;;22.15;71.12
23433;BME280;41331;45.412;10.992;2023-05-07T06:42:55;100930.44;;;22.45;69.84
23433;BME280;41331;45.412;10.992;2023-05-07T06:45:30;100934.81;;;22.32;70.50
23433;BME280;41331;45.412;10.992;2023-05-07T06:47:58;100943.84;;;21.86;72.49
23433;BME280;41331;45.412;10.992;2023-05-07T06:50:26;100939.75;;;21.41;75.47
23433;BME280;41331;45.412;10.992;2023-05-07T06:52:57;100942.84;;;21.25;76.26
23433;BME280;41331;45.412;10.992;2023-05-07T06:55:25;100938.47;;;21.28;77.65
23433;BME280;41331;45.412;10.992;2023-05-07T06:57:54;100941.75;;;21.40;74.93
23433;BME280;41331;45.412;10.992;2023-05-07T07:00:23;100944.22;;;21.81;74.36
23433;BME280;41331;45.412;10.992;2023-05-07T07:02:56;100948.16;;;21.73;73.80
23433;BME280;41331;45.412;10.992;2023-05-07T07:05:27;100942.66;;;21.87;74.56
23433;BME280;41331;45.412;10.992;2023-05-07T07:07:55;100937.88;;;21.73;74.87
23433;BME280;41331;45.412;10.992;2023-05-07T07:10:22;100937.13;;;21.87;75.06
23433;BME280;41331;45.412;10.992;2023-05-07T07:12:51;100940.25;;;21.79;75.94
23433;BME280;41331;45.412;10.992;2023-05-07T07:15:20;100940.28;;;21.93;74.80
23433;BME280;41331;45.412;10.992;2023-05-07T07:17:49;100939.09;;;21.87;75.62
23433;BME280;41331;45.412;10.992;2023-05-07T07:20:17;100939.50;;;21.92;74.91
23433;BME280;41331;45.412;10.992;2023-05-07T07:22:48;100931.22;;;22.28;74.16
23433;BME280;41331;45.412;10.992;2023-05-07T07:25:16;100930.03;;;22.58;72.61
23433;BME280;41331;45.412;10.992;2023-05-07T07:27:44;100930.00;;;22.72;71.41
23433;BME280;41331;45.412;10.992;2023-05-07T07:30:13;100929.56;;;22.88;69.19
23433;BME280;41331;45.412;10.992;2023-05-07T07:32:44;100925.91;;;23.26;68.59
23433;BME280;41331;45.412;10.992;2023-05-07T07:35:12;100921.16;;;23.23;66.87
23433;BME280;41331;45.412;10.992;2023-05-07T07:37:39;100914.84;;;23.19;68.14
23433;BME280;41331;45.412;10.992;2023-05-07T07:40:11;100927.63;;;22.88;69.51
23433;BME280;41331;45.412;10.992;2023-05-07T07:42:39;100926.44;;;22.75;70.56
23433;BME280;41331;45.412;10.992;2023-05-07T07:45:07;100923.25;;;22.87;69.29
23433;BME280;41331;45.412;10.992;2023-05-07T07:47:39;100921.47;;;23.43;68.21
23433;BME280;41331;45.412;10.992;2023-05-07T07:50:08;100914.06;;;23.12;67.84
23433;BME280;41331;45.412;10.992;2023-05-07T07:52:36;100928.75;;;23.09;67.84
23433;BME280;41331;45.412;10.992;2023-05-07T07:55:04;100931.19;;;22.92;68.55
23433;BME280;41331;45.412;10.992;2023-05-07T07:57:33;100924.81;;;23.06;65.17
23433;BME280;41331;45.412;10.992;2023-05-07T08:00:00;100935.50;;;23.15;65.07
23433;BME280;41331;45.412;10.992;2023-05-07T08:02:32;100929.19;;;22.96;65.46
23433;BME280;41331;45.412;10.992;2023-05-07T08:04:59;100934.72;;;23.11;64.26
23433;BME280;41331;45.412;10.992;2023-05-07T08:07:27;100933.03;;;23.31;64.79
23433;BME280;41331;45.412;10.992;2023-05-07T08:09:54;100932.50;;;23.54;63.06
23433;BME280;41331;45.412;10.992;2023-05-07T08:12:24;100930.63;;;23.37;65.17
23433;BME280;41331;45.412;10.992;2023-05-07T08:14:51;100936.56;;;23.42;62.96
23433;BME280;41331;45.412;10.992;2023-05-07T08:17:19;100936.19;;;23.33;63.92
23433;BME280;41331;45.412;10.992;2023-05-07T08:19:50;100943.41;;;23.09;64.73
23433;BME280;41331;45.412;10.992;2023-05-07T08:22:17;100946.22;;;22.98;63.35
23433;BME280;41331;45.412;10.992;2023-05-07T08:24:45;100945.03;;;23.03;63.15
23433;BME280;41331;45.412;10.992;2023-05-07T08:27:13;100946.94;;;23.27;63.59
23433;BME280;41331;45.412;10.992;2023-05-07T08:29:42;100939.31;;;23.49;60.56
23433;BME280;41331;45.412;10.992;2023-05-07T08:32:09;100950.97;;;23.96;59.72
23433;BME280;41331;45.412;10.992;2023-05-07T08:34:37;100949.34;;;23.99;61.45
23433;BME280;41331;45.412;10.992;2023-05-07T08:37:05;100947.50;;;23.78;62.21
23433;BME280;41331;45.412;10.992;2023-05-07T08:39:34;100939.34;;;24.12;62.37
23433;BME280;41331;45.412;10.992;2023-05-07T08:42:04;100946.19;;;23.97;62.13
23433;BME280;41331;45.412;10.992;2023-05-07T08:44:34;100949.13;;;24.27;59.18
23433;BME280;41331;45.412;10.992;2023-05-07T08:47:07;100946.91;;;24.60;60.08
23433;BME280;41331;45.412;10.992;2023-05-07T08:49:35;100940.69;;;24.83;57.87
23433;BME280;41331;45.412;10.992;2023-05-07T08:52:04;100942.50;;;24.63;56.93
23433;BME280;41331;45.412;10.992;2023-05-07T08:54:39;100945.41;;;24.90;55.81
23433;BME280;41331;45.412;10.992;2023-05-07T08:57:09;100944.59;;;24.89;55.63
23433;BME280;41331;45.412;10.992;2023-05-07T08:59:36;100942.06;;;25.05;54.88
23433;BME280;41331;45.412;10.992;2023-05-07T09:02:07;100946.84;;;24.67;54.58
23433;BME280;41331;45.412;10.992;2023-05-07T09:04:36;100938.91;;;24.66;55.08
23433;BME280;41331;45.412;10.992;2023-05-07T09:07:07;100933.28;;;25.11;53.60
23433;BME280;41331;45.412;10.992;2023-05-07T09:09:40;100934.75;;;25.80;54.51
23433;BME280;41331;45.412;10.992;2023-05-07T09:12:08;100934.06;;;25.99;51.97
23433;BME280;41331;45.412;10.992;2023-05-07T09:14:38;100932.19;;;25.93;53.15
23433;BME280;41331;45.412;10.992;2023-05-07T09:17:06;100934.25;;;25.58;53.47
23433;BME280;41331;45.412;10.992;2023-05-07T09:19:34;100934.47;;;25.40;55.67
23433;BME280;41331;45.412;10.992;2023-05-07T09:22:05;100927.94;;;25.54;54.67
23433;BME280;41331;45.412;10.992;2023-05-07T09:24:48;100931.28;;;25.42;52.39
23433;BME280;41331;45.412;10.992;2023-05-07T09:27:17;100929.47;;;25.58;52.51
23433;BME280;41331;45.412;10.992;2023-05-07T09:29:45;100921.03;;;25.93;51.43
23433;BME280;41331;45.412;10.992;2023-05-07T09:32:15;100933.03;;;25.59;51.91
23433;BME280;41331;45.412;10.992;2023-05-07T09:34:42;100933.09;;;25.55;50.49
23433;BME280;41331;45.412;10.992;2023-05-07T09:37:13;100932.78;;;25.80;50.30
23433;BME280;41331;45.412;10.992;2023-05-07T09:39:45;100934.44;;;25.44;50.52
23433;BME280;41331;45.412;10.992;2023-05-07T09:42:23;100930.22;;;25.32;51.26
23433;BME280;41331;45.412;10.992;2023-05-07T09:44:51;100927.34;;;25.39;52.09
23433;BME280;41331;45.412;10.992;2023-05-07T09:47:24;100926.88;;;25.44;52.63
23433;BME280;41331;45.412;10.992;2023-05-07T09:49:56;100924.38;;;25.53;51.31
23433;BME280;41331;45.412;10.992;2023-05-07T09:52:27;100927.56;;;25.82;50.42
23433;BME280;41331;45.412;10.992;2023-05-07T09:55:02;100921.03;;;25.66;51.03
23433;BME280;41331;45.412;10.992;2023-05-07T09:57:33;100926.78;;;25.51;52.54
23433;BME280;41331;45.412;10.992;2023-05-07T10:00:05;100926.69;;;26.13;49.94
23433;BME280;41331;45.412;10.992;2023-05-07T10:02:51;100919.28;;;26.02;49.99
23433;BME280;41331;45.412;10.992;2023-05-07T10:05:27;100925.13;;;26.35;50.86
23433;BME280;41331;45.412;10.992;2023-05-07T10:07:58;100921.63;;;26.31;51.52
23433;BME280;41331;45.412;10.992;2023-05-07T10:10:26;100912.13;;;26.25;51.87
23433;BME280;41331;45.412;10.992;2023-05-07T10:12:56;100913.63;;;26.56;50.94
23433;BME280;41331;45.412;10.992;2023-05-07T10:15:31;100907.25;;;26.56;50.96
23433;BME280;41331;45.412;10.992;2023-05-07T10:18:00;100919.59;;;26.78;50.80
23433;BME280;41331;45.412;10.992;2023-05-07T10:20:31;100901.28;;;26.97;49.19
23433;BME280;41331;45.412;10.992;2023-05-07T10:23:04;100898.19;;;26.92;49.24
23433;BME280;41331;45.412;10.992;2023-05-07T10:25:39;100898.69;;;26.87;50.41
23433;BME280;41331;45.412;10.992;2023-05-07T10:28:15;100905.63;;;26.78;49.14
23433;BME280;41331;45.412;10.992;2023-05-07T10:30:56;100909.19;;;26.79;49.97
23433;BME280;41331;45.412;10.992;2023-05-07T10:33:37;100891.28;;;27.36;49.29
23433;BME280;41331;45.412;10.992;2023-05-07T10:36:05;100905.41;;;26.69;46.85
23433;BME280;41331;45.412;10.992;2023-05-07T10:38:35;100895.53;;;26.84;48.97
23433;BME280;41331;45.412;10.992;2023-05-07T10:41:02;100894.91;;;26.97;49.27
23433;BME280;41331;45.412;10.992;2023-05-07T10:43:43;100903.47;;;27.26;49.85
23433;BME280;41331;45.412;10.992;2023-05-07T10:46:22;100898.56;;;27.50;49.32
23433;BME280;41331;45.412;10.992;2023-05-07T10:52:11;100900.50;;;27.17;48.60
23433;BME280;41331;45.412;10.992;2023-05-07T10:54:45;100895.47;;;27.28;48.06
23433;BME280;41331;45.412;10.992;2023-05-07T10:57:34;100889.41;;;28.02;46.28
23433;BME280;41331;45.412;10.992;2023-05-07T11:00:43;100889.59;;;27.58;46.11
23433;BME280;41331;45.412;10.992;2023-05-07T11:03:18;100883.88;;;28.14;46.30
23433;BME280;41331;45.412;10.992;2023-05-07T11:06:11;100878.72;;;28.13;44.66
23433;BME280;41331;45.412;10.992;2023-05-07T11:08:57;100879.69;;;27.90;45.63
23433;BME280;41331;45.412;10.992;2023-05-07T11:11:49;100877.84;;;27.83;44.88
23433;BME280;41331;45.412;10.992;2023-05-07T11:14:45;100883.66;;;27.56;43.90
23433;BME280;41331;45.412;10.992;2023-05-07T11:17:31;100872.13;;;27.54;44.35
23433;BME280;41331;45.412;10.992;2023-05-07T11:20:06;100863.53;;;27.81;44.32
23433;BME280;41331;45.412;10.992;2023-05-07T11:22:48;100867.34;;;27.71;45.99
23433;BME280;41331;45.412;10.992;2023-05-07T11:25:25;100873.66;;;27.39;48.27
23433;BME280;41331;45.412;10.992;2023-05-07T11:28:15;100858.94;;;27.55;46.57
23433;BME280;41331;45.412;10.992;2023-05-07T11:30:49;100856.75;;;27.62;43.57
23433;BME280;41331;45.412;10.992;2023-05-07T11:33:19;100849.19;;;27.79;45.06
23433;BME280;41331;45.412;10.992;2023-05-07T11:35:50;100847.88;;;27.84;44.40
23433;BME280;41331;45.412;10.992;2023-05-07T11:38:23;100845.19;;;28.26;45.42
23433;BME280;41331;45.412;10.992;2023-05-07T11:40:55;100844.78;;;27.62;41.67
23433;BME280;41331;45.412;10.992;2023-05-07T11:43:23;100845.84;;;28.01;43.55
23433;BME280;41331;45.412;10.992;2023-05-07T11:45:50;100849.91;;;28.45;42.78
23433;BME280;41331;45.412;10.992;2023-05-07T11:48:21;100844.63;;;28.63;43.44
23433;BME280;41331;45.412;10.992;2023-05-07T11:51:00;100847.72;;;28.82;41.50
23433;BME280;41331;45.412;10.992;2023-05-07T11:53:42;100843.34;;;28.52;43.53
23433;BME280;41331;45.412;10.992;2023-05-07T11:56:11;100845.19;;;27.97;41.40
23433;BME280;41331;45.412;10.992;2023-05-07T11:58:40;100837.00;;;28.35;42.68
23433;BME280;41331;45.412;10.992;2023-05-07T12:01:09;100850.84;;;28.55;44.18
23433;BME280;41331;45.412;10.992;2023-05-07T12:03:37;100849.81;;;28.78;41.63
23433;BME280;41331;45.412;10.992;2023-05-07T12:06:06;100849.28;;;28.54;42.69
23433;BME280;41331;45.412;10.992;2023-05-07T12:08:36;100848.16;;;28.51;43.70
23433;BME280;41331;45.412;10.992;2023-05-07T12:11:07;100846.38;;;27.96;45.34
23433;BME280;41331;45.412;10.992;2023-05-07T12:13:34;100843.38;;;28.19;45.53
23433;BME280;41331;45.412;10.992;2023-05-07T12:16:02;100847.56;;;28.44;44.28
23433;BME280;41331;45.412;10.992;2023-05-07T12:18:30;100842.59;;;28.64;43.82
23433;BME280;41331;45.412;10.992;2023-05-07T12:20:58;100846.63;;;28.63;43.04
23433;BME280;41331;45.412;10.992;2023-05-07T12:23:26;100840.31;;;28.30;43.84
23433;BME280;41331;45.412;10.992;2023-05-07T12:25:54;100849.38;;;28.50;44.70
23433;BME280;41331;45.412;10.992;2023-05-07T12:28:21;100845.94;;;28.59;42.22
23433;BME280;41331;45.412;10.992;2023-05-07T12:30:50;100844.56;;;28.51;42.26
23433;BME280;41331;45.412;10.992;2023-05-07T12:33:23;100841.75;;;28.22;42.69
23433;BME280;41331;45.412;10.992;2023-05-07T12:35:53;100842.75;;;28.44;42.23
23433;BME280;41331;45.412;10.992;2023-05-07T12:38:21;100844.00;;;28.10;41.17
23433;BME280;41331;45.412;10.992;2023-05-07T12:40:50;100840.88;;;27.76;42.39
23433;BME280;41331;45.412;10.992;2023-05-07T12:43:26;100842.78;;;27.62;41.86
23433;BME280;41331;45.412;10.992;2023-05-07T12:45:55;100836.78;;;27.80;42.58
23433;BME280;41331;45.412;10.992;2023-05-07T12:48:23;100836.69;;;28.00;42.18
23433;BME280;41331;45.412;10.992;2023-05-07T12:50:54;100826.81;;;27.96;40.67
23433;BME280;41331;45.412;10.992;2023-05-07T12:53:24;100824.09;;;27.76;42.45
23433;BME280;41331;45.412;10.992;2023-05-07T12:55:53;100824.19;;;27.88;44.07
23433;BME280;41331;45.412;10.992;2023-05-07T12:58:33;100816.41;;;27.80;42.60